Time;durP1;ratioP1;P1;durP2;ratioP2;P2;SDS_P1;SDS_P2;PMS_P1;PMS_P2;Temp;Humidity;BMP_temperature;BMP_pressure;BME280_temperature;BME280_humidity;BME280_pressure;Samples;Min_cycle;Max_cycle;Signal;HPM_P1;HPM_P2
2022/01/15 00:01:34;;;;;;;;;;;4.60;88.40;;;;;;5031721;28;19966;-85
2022/01/15 00:03:59;;;;;;;;;;;4.60;88.70;;;;;;5028779;28;19932;-85
2022/01/15 00:06:25;;;;;;;;;;;4.80;88.20;;;;;;5045240;28;19917;-86
2022/01/15 00:08:50;;;;;;;;;;;4.80;87.90;;;;;;5027974;28;19913;-86
2022/01/15 00:11:16;;;;;;;;;;;4.70;88.20;;;;;;5029848;28;20349;-86
2022/01/15 00:13:43;;;;;;;;;;;4.60;88.30;;;;;;5027997;28;19917;-86
2022/01/15 00:18:48;;;;;;;;;;;4.60;88.10;;;;;;5056353;28;20450;-86
2022/01/15 00:21:14;;;;;;;;;;;4.60;88.50;;;;;;5033028;28;20298;-86
2022/01/15 00:23:40;;;;;;;;;;;4.60;88.40;;;;;;5031445;28;19920;-86
2022/01/15 00:26:06;;;;;;;;;;;4.60;88.40;;;;;;5026780;28;19924;-85
2022/01/15 00:28:31;;;;;;;;;;;4.50;88.60;;;;;;5030476;28;19921;-86
2022/01/15 00:30:57;;;;;;;;;;;4.50;88.60;;;;;;5024958;28;19921;-85
2022/01/15 00:33:24;;;;;;;;;;;4.40;88.70;;;;;;5030105;28;19917;-86
2022/01/15 00:35:49;;;;;;;;;;;4.40;88.80;;;;;;5028730;28;20398;-85
2022/01/15 00:38:15;;;;;;;;;;;4.40;88.90;;;;;;5029734;28;19917;-86
2022/01/15 00:40:41;;;;;;;;;;;4.40;88.90;;;;;;5030338;28;19920;-86
2022/01/15 00:43:06;;;;;;;;;;;4.50;88.90;;;;;;5022784;28;19917;-86
2022/01/15 00:45:33;;;;;;;;;;;4.50;89.00;;;;;;5029806;28;19917;-85
2022/01/15 00:47:59;;;;;;;;;;;4.60;88.80;;;;;;5024456;28;19916;-84
2022/01/15 00:50:24;;;;;;;;;;;4.50;88.50;;;;;;5044882;28;19912;-86
2022/01/15 00:52:50;;;;;;;;;;;4.60;88.40;;;;;;5024311;28;19925;-86
2022/01/15 00:55:16;;;;;;;;;;;4.80;87.70;;;;;;5032421;28;20003;-86
2022/01/15 00:57:42;;;;;;;;;;;4.70;87.80;;;;;;5026541;28;20331;-86
2022/01/15 01:00:08;;;;;;;;;;;4.60;88.00;;;;;;5052772;28;19920;-85
2022/01/15 01:02:34;;;;;;;;;;;4.60;88.20;;;;;;5047218;28;20004;-85
2022/01/15 01:04:59;;;;;;;;;;;4.80;87.80;;;;;;5025833;28;19947;-85
2022/01/15 01:07:25;;;;;;;;;;;4.70;87.00;;;;;;5026636;28;20180;-85
2022/01/15 01:20:36;;;;;;;;;;;4.60;87.70;;;;;;5047925;28;19966;-85
2022/01/15 01:23:02;;;;;;;;;;;4.60;87.80;;;;;;5028322;28;19921;-85
2022/01/15 01:25:35;;;;;;;;;;;4.70;88.00;;;;;;5022607;28;20331;-85
2022/01/15 01:28:07;;;;;;;;;;;4.80;88.00;;;;;;5047668;28;19924;-85
2022/01/15 01:30:42;;;;;;;;;;;4.70;87.50;;;;;;5041754;28;19921;-85
2022/01/15 01:35:42;;;;;;;;;;;4.70;87.90;;;;;;5019905;28;19975;-84
2022/01/15 01:38:14;;;;;;;;;;;4.70;88.00;;;;;;5018281;28;19917;-84
2022/01/15 01:40:43;;;;;;;;;;;4.60;87.90;;;;;;5032200;28;19920;-84
2022/01/15 01:43:40;;;;;;;;;;;4.60;87.90;;;;;;5037051;28;20376;-85
2022/01/15 01:46:19;;;;;;;;;;;4.50;88.00;;;;;;5030233;28;19948;-84
2022/01/15 01:48:44;;;;;;;;;;;4.50;88.30;;;;;;5030273;28;19955;-85
2022/01/15 01:51:20;;;;;;;;;;;4.50;88.50;;;;;;5025884;28;19913;-84
2022/01/15 01:53:45;;;;;;;;;;;4.60;88.50;;;;;;5029048;28;19932;-84
2022/01/15 01:56:11;;;;;;;;;;;4.60;88.30;;;;;;5030328;28;19910;-84
2022/01/15 01:58:36;;;;;;;;;;;4.60;88.20;;;;;;5027558;28;19917;-85
2022/01/15 02:01:02;;;;;;;;;;;4.60;88.40;;;;;;5028149;28;19985;-84
2022/01/15 02:03:27;;;;;;;;;;;4.70;88.40;;;;;;5024315;28;20019;-85
2022/01/15 02:05:53;;;;;;;;;;;4.60;88.10;;;;;;5024063;28;20364;-85
2022/01/15 02:08:19;;;;;;;;;;;4.50;88.30;;;;;;5046278;28;20321;-84
2022/01/15 02:10:44;;;;;;;;;;;4.50;88.20;;;;;;5029592;28;19916;-85
2022/01/15 02:13:10;;;;;;;;;;;4.60;88.20;;;;;;5036608;28;20015;-85
2022/01/15 02:15:36;;;;;;;;;;;4.60;88.10;;;;;;5031461;28;19919;-84
2022/01/15 02:18:02;;;;;;;;;;;4.70;88.00;;;;;;5031147;28;19909;-84
2022/01/15 02:26:12;;;;;;;;;;;4.60;88.30;;;;;;5042719;28;19992;-84
2022/01/15 02:28:38;;;;;;;;;;;4.60;88.00;;;;;;5023910;28;19921;-85
2022/01/15 02:31:05;;;;;;;;;;;4.40;88.40;;;;;;5034564;28;20278;-85
2022/01/15 02:33:31;;;;;;;;;;;4.40;88.80;;;;;;5042245;28;19921;-84
2022/01/15 02:35:57;;;;;;;;;;;4.50;88.80;;;;;;5045450;28;19971;-84
2022/01/15 02:38:22;;;;;;;;;;;4.50;88.70;;;;;;5027428;28;20365;-84
2022/01/15 02:40:48;;;;;;;;;;;4.60;88.50;;;;;;5025871;28;19914;-84
2022/01/15 02:43:17;;;;;;;;;;;4.60;88.40;;;;;;5034863;28;19913;-84
2022/01/15 02:45:46;;;;;;;;;;;4.70;88.30;;;;;;5033779;28;19913;-84
2022/01/15 02:48:14;;;;;;;;;;;4.70;88.30;;;;;;5028985;28;20082;-84
2022/01/15 02:50:40;;;;;;;;;;;4.80;88.30;;;;;;5031952;28;19917;-84
2022/01/15 02:53:06;;;;;;;;;;;4.70;88.20;;;;;;5032062;28;19913;-84
2022/01/15 02:55:32;;;;;;;;;;;4.80;88.10;;;;;;5032545;28;19913;-84
2022/01/15 02:57:57;;;;;;;;;;;4.70;88.10;;;;;;5030941;28;19960;-84
2022/01/15 03:00:24;;;;;;;;;;;4.70;88.00;;;;;;5034622;28;19914;-84
2022/01/15 03:02:50;;;;;;;;;;;4.80;88.20;;;;;;5031933;28;20021;-84
2022/01/15 03:05:16;;;;;;;;;;;4.80;88.30;;;;;;5030395;28;19952;-84
2022/01/15 03:07:41;;;;;;;;;;;4.80;88.50;;;;;;5026470;28;20242;-84
2022/01/15 03:10:08;;;;;;;;;;;4.80;88.40;;;;;;5022441;28;19928;-84
2022/01/15 03:12:34;;;;;;;;;;;4.80;88.30;;;;;;5032817;28;20470;-84
2022/01/15 03:15:02;;;;;;;;;;;5.00;87.80;;;;;;5035368;28;20435;-84
2022/01/15 03:17:27;;;;;;;;;;;5.00;87.70;;;;;;5029447;28;20023;-85
2022/01/15 03:19:53;;;;;;;;;;;4.90;87.60;;;;;;5027531;28;20008;-84
2022/01/15 03:22:19;;;;;;;;;;;4.90;87.70;;;;;;5031648;28;19952;-84
2022/01/15 03:24:44;;;;;;;;;;;4.90;87.60;;;;;;5026731;28;20000;-85
2022/01/15 03:27:10;;;;;;;;;;;4.90;87.60;;;;;;5045167;28;20008;-85
2022/01/15 03:29:35;;;;;;;;;;;4.90;87.80;;;;;;5023852;28;19917;-84
2022/01/15 03:32:01;;;;;;;;;;;4.80;87.80;;;;;;5035633;28;19913;-83
2022/01/15 03:34:26;;;;;;;;;;;4.90;87.80;;;;;;5032128;28;19917;-84
2022/01/15 03:36:52;;;;;;;;;;;5.00;87.80;;;;;;5024535;28;19920;-84
2022/01/15 03:39:17;;;;;;;;;;;4.90;87.60;;;;;;5030974;28;20345;-84
2022/01/15 03:41:43;;;;;;;;;;;4.90;87.90;;;;;;5029276;28;20028;-84
2022/01/15 03:44:08;;;;;;;;;;;5.00;88.20;;;;;;5029448;28;19917;-84
2022/01/15 03:46:34;;;;;;;;;;;5.00;87.50;;;;;;5029906;28;19929;-84
2022/01/15 03:48:59;;;;;;;;;;;4.90;87.90;;;;;;5015796;28;19917;-84
2022/01/15 03:51:25;;;;;;;;;;;4.90;87.90;;;;;;5027527;28;19936;-84
2022/01/15 03:53:50;;;;;;;;;;;5.00;88.00;;;;;;5021234;28;19913;-84
2022/01/15 03:56:16;;;;;;;;;;;5.00;87.70;;;;;;5032539;28;19913;-84
2022/01/15 03:58:41;;;;;;;;;;;4.90;87.90;;;;;;5039750;28;19921;-84
2022/01/15 04:01:07;;;;;;;;;;;4.90;87.80;;;;;;5035328;28;19960;-85
2022/01/15 04:03:32;;;;;;;;;;;4.90;88.30;;;;;;5035436;28;19921;-84
2022/01/15 04:05:58;;;;;;;;;;;4.90;88.50;;;;;;5046188;28;19984;-83
2022/01/15 04:08:23;;;;;;;;;;;4.90;88.10;;;;;;5041752;28;20018;-85
2022/01/15 04:10:49;;;;;;;;;;;4.80;88.00;;;;;;5035781;28;19932;-85
2022/01/15 04:13:15;;;;;;;;;;;4.90;88.40;;;;;;5036731;28;19913;-84
2022/01/15 04:15:41;;;;;;;;;;;4.90;88.10;;;;;;5036851;28;19975;-85
2022/01/15 04:18:07;;;;;;;;;;;4.80;88.00;;;;;;5035836;28;19921;-85
2022/01/15 04:20:32;;;;;;;;;;;4.80;88.30;;;;;;5035100;28;19913;-84
2022/01/15 04:22:58;;;;;;;;;;;4.90;88.40;;;;;;5029516;28;19931;-84
2022/01/15 04:25:23;;;;;;;;;;;4.80;88.30;;;;;;5035180;28;19955;-84
2022/01/15 04:27:49;;;;;;;;;;;4.80;88.30;;;;;;5050954;28;19921;-85
2022/01/15 04:30:15;;;;;;;;;;;4.90;88.30;;;;;;5035850;28;19913;-85
2022/01/15 04:32:41;;;;;;;;;;;4.80;88.30;;;;;;5035260;28;19929;-85
2022/01/15 04:35:07;;;;;;;;;;;4.80;88.50;;;;;;5035871;28;19985;-85
2022/01/15 04:37:38;;;;;;;;;;;4.60;88.40;;;;;;5034688;28;19913;-84
2022/01/15 04:40:04;;;;;;;;;;;4.70;88.90;;;;;;5033203;28;19923;-84
2022/01/15 04:42:30;;;;;;;;;;;4.80;88.80;;;;;;5032799;28;20409;-84
2022/01/15 04:44:56;;;;;;;;;;;4.80;88.80;;;;;;5025751;28;20016;-84
2022/01/15 04:47:21;;;;;;;;;;;4.70;88.70;;;;;;5019325;28;19963;-85
2022/01/15 04:49:47;;;;;;;;;;;4.60;88.70;;;;;;5033428;28;19913;-85
2022/01/15 04:52:12;;;;;;;;;;;4.60;88.70;;;;;;5034767;28;20340;-85
2022/01/15 04:54:37;;;;;;;;;;;4.70;88.40;;;;;;5031111;28;19913;-85
2022/01/15 04:57:03;;;;;;;;;;;4.70;88.50;;;;;;5027717;28;20171;-85
2022/01/15 04:59:28;;;;;;;;;;;4.50;88.40;;;;;;5025498;28;20051;-85
2022/01/15 05:01:54;;;;;;;;;;;4.30;88.70;;;;;;5032645;28;20024;-84
2022/01/15 05:04:19;;;;;;;;;;;4.30;89.00;;;;;;5033121;28;19909;-84
2022/01/15 05:06:45;;;;;;;;;;;4.10;89.20;;;;;;5022245;28;19917;-84
2022/01/15 05:09:11;;;;;;;;;;;4.30;89.50;;;;;;5030651;28;19969;-85
2022/01/15 05:11:48;;;;;;;;;;;4.40;89.40;;;;;;5031916;28;19939;-85
2022/01/15 05:14:14;;;;;;;;;;;4.40;88.90;;;;;;5032676;28;19913;-85
2022/01/15 05:16:40;;;;;;;;;;;4.40;88.60;;;;;;5032798;28;19913;-84
2022/01/15 05:19:05;;;;;;;;;;;4.50;88.70;;;;;;5037406;28;19913;-85
2022/01/15 05:21:31;;;;;;;;;;;4.60;88.40;;;;;;5035735;28;19917;-85
2022/01/15 05:23:57;;;;;;;;;;;4.50;88.30;;;;;;5033713;28;20311;-85
2022/01/15 05:26:22;;;;;;;;;;;4.50;88.20;;;;;;5018643;28;19925;-85
2022/01/15 05:28:48;;;;;;;;;;;4.50;88.30;;;;;;5026240;28;19953;-85
2022/01/15 05:31:13;;;;;;;;;;;4.40;88.50;;;;;;5024579;28;20394;-85
2022/01/15 05:33:39;;;;;;;;;;;4.50;88.50;;;;;;5035724;28;20388;-85
2022/01/15 05:36:04;;;;;;;;;;;4.50;88.60;;;;;;5049876;28;19971;-84
2022/01/15 05:38:30;;;;;;;;;;;4.60;88.30;;;;;;5035294;28;19913;-85
2022/01/15 05:40:55;;;;;;;;;;;4.60;88.20;;;;;;5035236;28;20376;-85
2022/01/15 05:43:21;;;;;;;;;;;4.60;88.10;;;;;;5046163;28;20086;-85
2022/01/15 05:45:46;;;;;;;;;;;4.50;88.20;;;;;;5052938;28;19956;-84
2022/01/15 05:48:12;;;;;;;;;;;4.50;88.30;;;;;;5038582;28;19935;-85
2022/01/15 05:50:37;;;;;;;;;;;4.50;88.20;;;;;;5030564;28;19979;-84
2022/01/15 05:53:03;;;;;;;;;;;4.60;88.30;;;;;;5030510;28;19917;-84
2022/01/15 05:55:28;;;;;;;;;;;4.60;87.90;;;;;;5039884;28;19915;-85
2022/01/15 05:57:54;;;;;;;;;;;4.60;87.80;;;;;;5042923;28;19915;-85
2022/01/15 06:00:19;;;;;;;;;;;4.60;87.70;;;;;;5028352;28;20019;-85
2022/01/15 06:02:45;;;;;;;;;;;4.60;87.60;;;;;;5048838;28;20017;-84
2022/01/15 06:05:11;;;;;;;;;;;4.60;87.40;;;;;;5033019;28;19989;-84
2022/01/15 06:07:36;;;;;;;;;;;4.60;86.90;;;;;;5031802;28;19932;-83
2022/01/15 06:10:02;;;;;;;;;;;4.40;86.80;;;;;;5031970;28;20237;-84
2022/01/15 06:12:30;;;;;;;;;;;4.40;86.90;;;;;;5032551;28;19913;-84
2022/01/15 06:14:56;;;;;;;;;;;4.40;87.00;;;;;;5031025;28;20391;-84
2022/01/15 06:17:22;;;;;;;;;;;4.30;87.10;;;;;;5031264;28;19916;-84
2022/01/15 06:19:47;;;;;;;;;;;4.30;87.30;;;;;;5030095;28;20287;-83
2022/01/15 06:22:13;;;;;;;;;;;4.30;87.10;;;;;;5031421;28;19943;-83
2022/01/15 06:24:38;;;;;;;;;;;4.30;87.00;;;;;;5030829;28;19924;-83
2022/01/15 06:27:04;;;;;;;;;;;4.30;87.00;;;;;;5030767;28;19917;-84
2022/01/15 06:29:29;;;;;;;;;;;4.30;87.20;;;;;;5030589;28;20023;-84
2022/01/15 06:31:54;;;;;;;;;;;4.20;87.60;;;;;;5030043;28;20422;-84
2022/01/15 06:34:20;;;;;;;;;;;4.00;87.80;;;;;;5031752;28;19996;-84
2022/01/15 06:36:46;;;;;;;;;;;4.10;88.20;;;;;;5029958;28;20386;-83
2022/01/15 06:39:11;;;;;;;;;;;4.10;88.30;;;;;;5030198;28;19913;-84
2022/01/15 06:41:37;;;;;;;;;;;4.10;88.30;;;;;;5030049;28;19913;-84
2022/01/15 06:44:02;;;;;;;;;;;4.20;88.10;;;;;;5030487;28;19920;-85
2022/01/15 06:46:28;;;;;;;;;;;4.20;88.10;;;;;;5024934;28;19971;-84
2022/01/15 06:48:53;;;;;;;;;;;4.10;88.00;;;;;;5029672;28;19929;-85
2022/01/15 06:51:19;;;;;;;;;;;4.20;88.10;;;;;;5031940;28;19940;-85
2022/01/15 06:53:44;;;;;;;;;;;4.10;88.10;;;;;;5030058;28;19913;-84
2022/01/15 06:56:10;;;;;;;;;;;4.10;88.00;;;;;;5027237;28;19917;-84
2022/01/15 06:58:35;;;;;;;;;;;4.20;87.90;;;;;;5031236;28;19923;-84
2022/01/15 07:01:01;;;;;;;;;;;4.20;87.70;;;;;;5029020;28;19987;-84
2022/01/15 07:03:26;;;;;;;;;;;4.20;87.80;;;;;;5027439;28;20004;-83
2022/01/15 07:05:51;;;;;;;;;;;4.30;87.30;;;;;;5026137;28;19936;-84
2022/01/15 07:08:17;;;;;;;;;;;4.20;87.30;;;;;;5030068;28;19993;-84
2022/01/15 07:10:43;;;;;;;;;;;4.20;87.40;;;;;;5029984;28;20398;-84
2022/01/15 07:13:20;;;;;;;;;;;4.10;87.30;;;;;;5023070;28;20473;-88
2022/01/15 07:15:46;;;;;;;;;;;4.00;87.70;;;;;;5032489;28;19913;-87
2022/01/15 07:18:11;;;;;;;;;;;4.10;87.60;;;;;;5023426;28;19959;-87
2022/01/15 07:20:37;;;;;;;;;;;4.00;88.10;;;;;;5012805;28;19913;-87
2022/01/15 07:23:02;;;;;;;;;;;4.00;87.70;;;;;;5022148;28;19916;-87
2022/01/15 07:25:30;;;;;;;;;;;4.10;87.60;;;;;;5048344;28;20580;-84
2022/01/15 07:28:01;;;;;;;;;;;4.00;87.70;;;;;;5044608;28;19925;-86
2022/01/15 07:30:32;;;;;;;;;;;4.00;88.10;;;;;;5047026;28;19972;-86
2022/01/15 07:32:58;;;;;;;;;;;4.00;87.90;;;;;;5059642;22;19970;-87
2022/01/15 07:35:23;;;;;;;;;;;3.80;88.10;;;;;;5049971;28;19991;-87
2022/01/15 07:37:49;;;;;;;;;;;3.70;88.70;;;;;;5061835;28;19908;-86
2022/01/15 07:40:14;;;;;;;;;;;3.80;88.50;;;;;;5062673;28;21270;-87
2022/01/15 07:42:40;;;;;;;;;;;3.80;88.80;;;;;;5052827;28;19963;-87
2022/01/15 07:45:11;;;;;;;;;;;3.80;88.70;;;;;;5052650;28;19998;-83
2022/01/15 07:47:37;;;;;;;;;;;3.90;88.70;;;;;;5036030;28;20355;-85
2022/01/15 07:50:08;;;;;;;;;;;3.80;88.70;;;;;;5035410;28;19914;-83
2022/01/15 07:52:34;;;;;;;;;;;3.90;88.90;;;;;;5039744;28;19920;-85
2022/01/15 07:55:00;;;;;;;;;;;3.80;88.80;;;;;;5043153;28;20040;-87
2022/01/15 07:57:26;;;;;;;;;;;3.70;89.10;;;;;;5045349;28;19913;-88
2022/01/15 07:59:52;;;;;;;;;;;3.80;89.10;;;;;;5063233;28;20437;-85
2022/01/15 08:02:17;;;;;;;;;;;3.80;89.30;;;;;;5038086;28;19963;-84
2022/01/15 08:04:43;;;;;;;;;;;3.90;89.00;;;;;;5038904;28;20011;-84
2022/01/15 08:07:09;;;;;;;;;;;4.00;89.00;;;;;;5039696;28;19913;-84
2022/01/15 08:09:35;;;;;;;;;;;4.10;88.20;;;;;;5043586;28;19913;-83
2022/01/15 08:12:00;;;;;;;;;;;4.10;88.10;;;;;;5048516;28;19916;-86
2022/01/15 08:14:26;;;;;;;;;;;4.00;88.60;;;;;;5037187;28;20012;-85
2022/01/15 08:16:51;;;;;;;;;;;4.00;88.60;;;;;;5043173;28;20364;-85
2022/01/15 08:19:17;;;;;;;;;;;3.90;88.90;;;;;;5052322;28;20351;-86
2022/01/15 08:21:42;;;;;;;;;;;3.90;88.80;;;;;;5052668;28;19999;-86
2022/01/15 08:24:08;;;;;;;;;;;3.90;88.90;;;;;;5046901;28;19938;-85
2022/01/15 08:26:34;;;;;;;;;;;3.80;89.30;;;;;;5051129;28;19923;-83
2022/01/15 08:28:59;;;;;;;;;;;3.60;89.30;;;;;;5044582;28;19917;-85
2022/01/15 08:31:25;;;;;;;;;;;3.60;89.60;;;;;;5058386;28;19915;-84
2022/01/15 08:33:50;;;;;;;;;;;3.70;90.00;;;;;;5060549;28;19929;-84
2022/01/15 08:36:17;;;;;;;;;;;3.80;89.90;;;;;;5058083;28;19939;-88
2022/01/15 08:38:43;;;;;;;;;;;3.80;89.60;;;;;;5053269;28;19913;-86
2022/01/15 08:41:08;;;;;;;;;;;4.10;88.90;;;;;;5050660;28;19963;-85
2022/01/15 08:43:34;;;;;;;;;;;4.10;88.80;;;;;;5047863;28;19913;-87
2022/01/15 08:45:59;;;;;;;;;;;4.10;88.90;;;;;;5048391;28;19974;-86
2022/01/15 08:48:25;;;;;;;;;;;4.10;88.40;;;;;;5046114;28;19913;-86
2022/01/15 08:50:50;;;;;;;;;;;4.00;88.70;;;;;;5045857;28;20003;-85
2022/01/15 08:53:18;;;;;;;;;;;4.00;88.90;;;;;;5053047;28;19916;-86
2022/01/15 08:55:44;;;;;;;;;;;4.10;89.10;;;;;;5050939;28;19917;-82
2022/01/15 08:58:09;;;;;;;;;;;4.10;88.90;;;;;;5043449;28;20047;-85
2022/01/15 09:00:35;;;;;;;;;;;4.00;88.90;;;;;;5045571;28;19959;-89
2022/01/15 09:03:06;;;;;;;;;;;3.50;88.90;;;;;;5050514;28;19921;-87
2022/01/15 09:05:34;;;;;;;;;;;3.50;89.20;;;;;;5049821;28;19913;-86
2022/01/15 09:07:59;;;;;;;;;;;3.50;89.50;;;;;;5047823;28;19916;-84
2022/01/15 09:10:25;;;;;;;;;;;3.60;89.60;;;;;;5041268;28;20290;-85
2022/01/15 09:12:51;;;;;;;;;;;3.60;89.30;;;;;;5038708;28;20052;-86
2022/01/15 09:15:17;;;;;;;;;;;3.40;89.40;;;;;;5039984;28;20271;-85
2022/01/15 09:17:43;;;;;;;;;;;3.20;89.70;;;;;;5041571;28;20004;-86
2022/01/15 09:20:09;;;;;;;;;;;3.40;90.30;;;;;;5054682;28;19948;-85
2022/01/15 09:22:34;;;;;;;;;;;3.60;89.90;;;;;;5051726;28;19913;-82
2022/01/15 09:25:00;;;;;;;;;;;3.80;89.90;;;;;;5052020;28;19916;-83
2022/01/15 09:30:13;;;;;;;;;;;3.60;89.00;;;;;;5045862;28;19920;-86
2022/01/15 09:32:40;;;;;;;;;;;3.40;89.40;;;;;;5042454;28;19923;-86
2022/01/15 09:35:05;;;;;;;;;;;3.50;89.80;;;;;;5054555;28;19919;-86
2022/01/15 09:37:31;;;;;;;;;;;3.80;89.80;;;;;;5050734;28;20291;-84
2022/01/15 09:39:57;;;;;;;;;;;3.90;89.30;;;;;;5043547;28;19916;-84
2022/01/15 09:42:23;;;;;;;;;;;4.00;88.60;;;;;;5049864;28;20347;-85
2022/01/15 09:44:49;;;;;;;;;;;3.90;88.30;;;;;;5044577;28;19935;-85
2022/01/15 09:47:15;;;;;;;;;;;3.90;88.60;;;;;;5043600;28;19992;-85
2022/01/15 09:49:43;;;;;;;;;;;3.90;88.60;;;;;;5040069;28;19917;-85
2022/01/15 09:52:08;;;;;;;;;;;3.90;88.30;;;;;;5048433;28;19943;-84
2022/01/15 09:54:34;;;;;;;;;;;3.90;88.60;;;;;;5045607;28;20015;-87
2022/01/15 09:56:59;;;;;;;;;;;4.00;88.40;;;;;;5038679;28;20363;-85
2022/01/15 09:59:25;;;;;;;;;;;4.00;88.20;;;;;;5035099;28;20291;-85
2022/01/15 10:01:50;;;;;;;;;;;4.10;88.00;;;;;;5049626;28;19913;-86
2022/01/15 10:04:16;;;;;;;;;;;4.10;87.60;;;;;;5049320;28;19913;-87
2022/01/15 10:07:08;;;;;;;;;;;4.10;87.10;;;;;;5048726;28;19916;-86
2022/01/15 10:09:38;;;;;;;;;;;4.10;87.00;;;;;;5048359;28;19920;-86
2022/01/15 10:12:04;;;;;;;;;;;3.90;87.00;;;;;;5046952;28;19956;-86
2022/01/15 10:14:31;;;;;;;;;;;3.80;87.40;;;;;;5046776;28;19925;-85
2022/01/15 10:16:59;;;;;;;;;;;4.00;86.70;;;;;;5066244;28;19913;-84
2022/01/15 10:19:29;;;;;;;;;;;4.00;87.00;;;;;;5052494;28;19913;-84
2022/01/15 10:22:10;;;;;;;;;;;4.00;87.20;;;;;;5057618;28;19920;-85
2022/01/15 10:24:36;;;;;;;;;;;4.00;87.10;;;;;;5049997;28;19932;-84
2022/01/15 10:27:18;;;;;;;;;;;4.00;86.90;;;;;;5044627;28;20387;-87
2022/01/15 10:29:54;;;;;;;;;;;4.10;86.90;;;;;;5039041;28;20419;-83
2022/01/15 10:32:20;;;;;;;;;;;4.20;87.00;;;;;;5043192;28;19913;-82
2022/01/15 10:34:46;;;;;;;;;;;4.10;87.30;;;;;;5041397;28;19924;-83
2022/01/15 10:37:17;;;;;;;;;;;4.10;86.70;;;;;;5042320;28;19929;-88
2022/01/15 10:40:04;;;;;;;;;;;4.10;86.50;;;;;;5038244;28;19913;-87
2022/01/15 10:42:30;;;;;;;;;;;4.20;86.70;;;;;;5043878;28;19924;-89
2022/01/15 10:44:59;;;;;;;;;;;4.30;86.20;;;;;;5048580;28;19909;-89
2022/01/15 10:47:26;;;;;;;;;;;4.40;85.80;;;;;;5034763;28;20367;-89
2022/01/15 10:49:56;;;;;;;;;;;4.40;85.90;;;;;;5047278;28;19909;-89
2022/01/15 10:52:23;;;;;;;;;;;4.50;85.30;;;;;;5053327;28;19939;-89
2022/01/15 10:54:50;;;;;;;;;;;4.50;85.80;;;;;;5049921;28;19920;-88
2022/01/15 10:57:17;;;;;;;;;;;4.30;85.20;;;;;;5047626;28;19958;-86
2022/01/15 10:59:54;;;;;;;;;;;4.30;86.50;;;;;;5042292;28;19913;-87
2022/01/15 11:02:20;;;;;;;;;;;4.20;86.60;;;;;;5034150;28;20342;-88
2022/01/15 11:04:45;;;;;;;;;;;4.30;86.60;;;;;;5046671;28;19963;-87
2022/01/15 11:07:12;;;;;;;;;;;4.40;86.70;;;;;;5047351;28;19924;-86
2022/01/15 11:09:37;;;;;;;;;;;4.30;86.50;;;;;;5042639;28;19913;-87
2022/01/15 11:12:04;;;;;;;;;;;4.40;86.50;;;;;;5034641;28;20265;-87
2022/01/15 11:14:30;;;;;;;;;;;4.60;86.30;;;;;;5037558;28;19913;-87
2022/01/15 11:16:57;;;;;;;;;;;4.60;85.90;;;;;;5053907;28;19966;-87
2022/01/15 11:19:23;;;;;;;;;;;4.70;86.00;;;;;;5051659;28;20067;-86
2022/01/15 11:21:49;;;;;;;;;;;4.30;86.20;;;;;;5064282;28;19917;-87
2022/01/15 11:24:17;;;;;;;;;;;3.90;87.20;;;;;;5044463;28;19985;-85
2022/01/15 11:26:45;;;;;;;;;;;3.80;87.70;;;;;;5048600;28;19913;-88
2022/01/15 11:29:11;;;;;;;;;;;3.60;88.10;;;;;;5045917;28;19913;-83
2022/01/15 11:31:37;;;;;;;;;;;3.30;88.70;;;;;;5051263;28;19918;-82
2022/01/15 11:34:04;;;;;;;;;;;3.20;89.10;;;;;;5067980;28;19928;-86
2022/01/15 11:36:34;;;;;;;;;;;3.20;89.80;;;;;;5044786;28;19919;-88
2022/01/15 11:39:04;;;;;;;;;;;3.30;90.00;;;;;;5050153;28;19924;-85
2022/01/15 11:41:29;;;;;;;;;;;3.20;90.00;;;;;;5048651;28;20375;-85
2022/01/15 11:44:04;;;;;;;;;;;3.10;90.00;;;;;;5043245;28;19921;-83
2022/01/15 11:46:50;;;;;;;;;;;3.10;90.10;;;;;;5048288;28;20306;-85
2022/01/15 11:49:32;;;;;;;;;;;3.30;90.50;;;;;;5043832;28;19943;-85
2022/01/15 11:52:08;;;;;;;;;;;3.60;90.10;;;;;;5050796;28;20047;-84
2022/01/15 11:54:34;;;;;;;;;;;4.00;89.40;;;;;;5042999;28;19917;-84
2022/01/15 11:57:00;;;;;;;;;;;4.30;88.10;;;;;;5040693;28;19913;-85
2022/01/15 11:59:26;;;;;;;;;;;4.30;87.80;;;;;;5043755;28;20371;-87
2022/01/15 12:01:52;;;;;;;;;;;4.40;87.60;;;;;;5046554;28;20444;-84
2022/01/15 12:04:34;;;;;;;;;;;4.20;87.30;;;;;;5051383;28;20333;-83
2022/01/15 12:07:05;;;;;;;;;;;4.30;87.50;;;;;;5041397;28;19924;-85
2022/01/15 12:09:41;;;;;;;;;;;4.50;87.20;;;;;;5043592;28;19920;-85
2022/01/15 12:12:31;;;;;;;;;;;4.50;87.20;;;;;;5045402;28;20401;-86
2022/01/15 12:14:56;;;;;;;;;;;4.70;86.30;;;;;;5041416;28;19917;-84
2022/01/15 12:17:22;;;;;;;;;;;4.80;85.90;;;;;;5048161;28;19963;-84
2022/01/15 12:19:47;;;;;;;;;;;4.90;85.60;;;;;;5043769;28;19909;-86
2022/01/15 12:22:32;;;;;;;;;;;4.90;86.10;;;;;;5049624;28;20256;-86
2022/01/15 12:24:58;;;;;;;;;;;4.60;86.10;;;;;;5045451;28;19913;-86
2022/01/15 12:27:27;;;;;;;;;;;4.70;85.80;;;;;;5038894;28;19921;-90
2022/01/15 12:30:10;;;;;;;;;;;4.60;85.70;;;;;;5039962;28;19964;-87
2022/01/15 12:32:39;;;;;;;;;;;4.60;86.00;;;;;;5040925;28;20461;-84
2022/01/15 12:35:10;;;;;;;;;;;4.70;86.00;;;;;;5043150;28;19916;-88
2022/01/15 12:37:36;;;;;;;;;;;4.60;86.00;;;;;;5043031;28;20687;-87
2022/01/15 12:40:06;;;;;;;;;;;4.60;85.90;;;;;;5055044;28;20004;-88
2022/01/15 12:42:33;;;;;;;;;;;4.70;86.10;;;;;;5042724;28;19912;-82
2022/01/15 12:44:59;;;;;;;;;;;4.60;86.00;;;;;;5044522;28;20007;-82
2022/01/15 12:47:24;;;;;;;;;;;4.50;86.40;;;;;;5041136;28;19956;-84
2022/01/15 12:49:52;;;;;;;;;;;4.50;86.90;;;;;;5050061;28;20299;-85
2022/01/15 12:52:20;;;;;;;;;;;4.60;86.90;;;;;;5072724;28;19913;-83
2022/01/15 12:54:47;;;;;;;;;;;4.80;86.90;;;;;;5049404;28;19959;-84
2022/01/15 12:57:12;;;;;;;;;;;4.70;86.50;;;;;;5043282;28;19928;-85
2022/01/15 12:59:39;;;;;;;;;;;4.60;86.80;;;;;;5046590;28;19917;-84
2022/01/15 13:02:05;;;;;;;;;;;4.60;87.00;;;;;;5041204;28;19917;-85
2022/01/15 13:04:30;;;;;;;;;;;4.60;86.90;;;;;;5043217;28;19916;-84
2022/01/15 13:07:00;;;;;;;;;;;4.50;86.90;;;;;;5041134;28;19928;-84
2022/01/15 13:09:38;;;;;;;;;;;4.60;87.30;;;;;;5050952;28;19923;-84
2022/01/15 13:12:06;;;;;;;;;;;4.80;87.20;;;;;;5044497;28;19913;-84
2022/01/15 13:14:37;;;;;;;;;;;4.80;86.90;;;;;;5048691;28;19931;-83
2022/01/15 13:17:03;;;;;;;;;;;4.90;86.60;;;;;;5050190;28;19917;-83
2022/01/15 13:19:38;;;;;;;;;;;5.00;86.60;;;;;;5054956;28;19919;-84
2022/01/15 13:22:03;;;;;;;;;;;4.70;86.40;;;;;;5069323;28;19917;-85
2022/01/15 13:24:30;;;;;;;;;;;4.60;87.10;;;;;;5051344;28;19971;-87
2022/01/15 13:26:57;;;;;;;;;;;4.60;87.50;;;;;;5037635;28;19917;-85
2022/01/15 13:29:35;;;;;;;;;;;4.50;87.30;;;;;;5052435;28;20003;-82
2022/01/15 13:32:01;;;;;;;;;;;4.50;87.90;;;;;;5070688;28;19913;-84
2022/01/15 13:34:28;;;;;;;;;;;4.70;87.60;;;;;;5052426;28;19923;-85
2022/01/15 13:36:54;;;;;;;;;;;4.70;87.40;;;;;;5035987;28;20011;-84
2022/01/15 13:39:23;;;;;;;;;;;4.60;87.60;;;;;;5042462;28;20347;-86
2022/01/15 13:41:49;;;;;;;;;;;4.50;87.60;;;;;;5072612;28;19951;-83
2022/01/15 13:44:16;;;;;;;;;;;4.60;87.70;;;;;;5039504;28;19913;-84
2022/01/15 13:46:44;;;;;;;;;;;4.70;87.90;;;;;;5043813;28;19917;-84
2022/01/15 13:49:21;;;;;;;;;;;4.70;87.70;;;;;;5060529;28;19909;-87
2022/01/15 13:54:30;;;;;;;;;;;4.90;87.50;;;;;;5053614;28;19962;-87
2022/01/15 13:57:02;;;;;;;;;;;4.70;87.20;;;;;;5053674;28;19913;-85
2022/01/15 13:59:28;;;;;;;;;;;4.70;87.70;;;;;;5039613;28;19913;-84
2022/01/15 14:01:56;;;;;;;;;;;4.80;87.60;;;;;;5035560;28;19920;-84
2022/01/15 14:04:35;;;;;;;;;;;4.90;87.50;;;;;;5051246;28;20142;-85
2022/01/15 14:07:05;;;;;;;;;;;4.80;87.50;;;;;;5037684;28;19925;-87
2022/01/15 14:09:32;;;;;;;;;;;4.80;87.60;;;;;;5033295;28;20339;-87
2022/01/15 14:11:59;;;;;;;;;;;4.80;87.60;;;;;;5034507;28;19974;-87
2022/01/15 14:14:24;;;;;;;;;;;4.80;87.90;;;;;;5034219;28;20372;-88
2022/01/15 14:16:51;;;;;;;;;;;4.90;87.90;;;;;;5050026;28;19929;-87
2022/01/15 14:22:14;;;;;;;;;;;5.00;87.60;;;;;;5046884;28;19962;-87
2022/01/15 14:24:43;;;;;;;;;;;5.00;87.70;;;;;;5033927;28;19915;-87
2022/01/15 14:27:14;;;;;;;;;;;5.10;87.50;;;;;;5041888;28;19917;-85
2022/01/15 14:29:40;;;;;;;;;;;5.00;87.50;;;;;;5041984;28;19920;-85
2022/01/15 14:32:06;;;;;;;;;;;4.80;87.60;;;;;;5041742;28;19913;-86
2022/01/15 14:34:31;;;;;;;;;;;5.10;87.60;;;;;;5034786;28;19928;-87
2022/01/15 14:36:57;;;;;;;;;;;5.20;87.30;;;;;;5043093;28;20391;-85
2022/01/15 14:39:22;;;;;;;;;;;5.10;87.10;;;;;;5041745;28;19913;-86
2022/01/15 14:41:48;;;;;;;;;;;5.00;87.40;;;;;;5043934;28;19915;-86
2022/01/15 14:44:13;;;;;;;;;;;5.10;87.40;;;;;;5047707;28;19916;-84
2022/01/15 14:46:39;;;;;;;;;;;5.10;87.00;;;;;;5047260;28;20338;-84
2022/01/15 14:49:05;;;;;;;;;;;5.10;87.30;;;;;;5051782;28;19913;-84
2022/01/15 14:51:30;;;;;;;;;;;5.10;87.70;;;;;;5052644;28;20375;-83
2022/01/15 14:53:56;;;;;;;;;;;5.00;87.80;;;;;;5049625;28;19943;-83
2022/01/15 14:56:21;;;;;;;;;;;4.90;87.80;;;;;;5053638;28;19998;-83
2022/01/15 14:58:47;;;;;;;;;;;4.90;88.10;;;;;;5049567;28;19952;-84
2022/01/15 15:01:12;;;;;;;;;;;5.00;88.30;;;;;;5050897;28;19912;-83